Time;durP1;ratioP1;P1;durP2;ratioP2;P2;SDS_P1;SDS_P2;PMS_P1;PMS_P2;Temp;Humidity;BMP_temperature;BMP_pressure;BME280_temperature;BME280_humidity;BME280_pressure;Samples;Min_cycle;Max_cycle;Signal;HPM_P1;HPM_P2
2021/04/24 00:00:37;;;;;;;5.45;3.78;;;8.80;99.90;;;;;;5123221;27;20203;-78
2021/04/24 00:03:07;;;;;;;14.38;4.32;;;8.80;99.90;;;;;;5111976;27;20220;-78
2021/04/24 00:05:36;;;;;;;6.55;3.65;;;8.80;99.90;;;;;;5115753;27;20228;-78
2021/04/24 00:08:05;;;;;;;9.68;4.18;;;8.70;99.90;;;;;;5116090;27;20206;-78
2021/04/24 00:10:34;;;;;;;7.45;3.88;;;8.70;99.90;;;;;;5116973;27;20207;-78
2021/04/24 00:13:02;;;;;;;11.35;4.60;;;8.70;99.90;;;;;;5123165;27;20206;-78
2021/04/24 00:15:28;;;;;;;14.40;3.72;;;8.70;99.90;;;;;;5120366;27;20663;-78
2021/04/24 00:17:55;;;;;;;6.82;4.00;;;8.70;99.90;;;;;;5124037;27;20232;-77
2021/04/24 00:20:24;;;;;;;6.75;4.43;;;8.60;99.90;;;;;;5117576;27;20214;-77
2021/04/24 00:22:50;;;;;;;6.15;4.28;;;8.50;99.90;;;;;;5118319;27;20196;-77
2021/04/24 00:25:18;;;;;;;7.22;3.53;;;8.50;99.90;;;;;;5121644;27;20235;-77
2021/04/24 00:27:44;;;;;;;4.72;3.28;;;8.40;99.90;;;;;;5121541;27;20203;-78
2021/04/24 00:30:13;;;;;;;10.35;3.78;;;8.40;99.90;;;;;;5120245;27;20225;-77
2021/04/24 00:32:40;;;;;;;5.40;3.45;;;8.40;99.90;;;;;;5110880;27;20211;-77
2021/04/24 00:35:08;;;;;;;7.47;3.28;;;8.40;99.90;;;;;;5114300;27;20211;-78
2021/04/24 00:37:36;;;;;;;7.25;3.83;;;8.30;99.90;;;;;;5116362;27;20196;-78
2021/04/24 00:40:03;;;;;;;10.15;3.38;;;8.30;99.90;;;;;;5117845;27;20193;-78
2021/04/24 00:42:29;;;;;;;4.63;3.50;;;8.20;99.90;;;;;;5126605;27;20207;-78
2021/04/24 00:44:56;;;;;;;6.50;3.10;;;8.20;99.90;;;;;;5113978;28;20230;-78
2021/04/24 00:47:24;;;;;;;8.55;3.35;;;8.20;99.90;;;;;;5112816;28;20198;-77
2021/04/24 00:49:51;;;;;;;7.00;3.33;;;8.10;99.90;;;;;;5126734;28;20199;-77
2021/04/24 00:52:18;;;;;;;4.93;3.33;;;8.00;99.90;;;;;;5119625;27;20200;-77
2021/04/24 00:54:46;;;;;;;5.80;3.00;;;8.00;99.90;;;;;;5117874;27;20203;-77
2021/04/24 00:57:13;;;;;;;5.38;3.03;;;7.90;99.90;;;;;;5124635;27;20187;-78
2021/04/24 00:59:41;;;;;;;8.77;3.38;;;7.90;99.90;;;;;;5118576;27;20211;-78
2021/04/24 01:02:09;;;;;;;2.85;2.30;;;7.80;99.90;;;;;;5126471;27;20200;-78
2021/04/24 01:04:36;;;;;;;4.38;2.67;;;7.90;99.90;;;;;;5118045;27;20759;-78
2021/04/24 01:07:03;;;;;;;6.88;2.60;;;7.80;99.90;;;;;;5117191;27;20179;-78
2021/04/24 01:09:30;;;;;;;9.73;3.03;;;7.70;99.90;;;;;;5119963;27;20199;-77
2021/04/24 01:11:57;;;;;;;4.10;2.45;;;7.70;99.90;;;;;;5123107;27;20184;-77
2021/04/24 01:14:24;;;;;;;4.22;2.30;;;7.80;99.90;;;;;;5122982;27;20229;-77
2021/04/24 01:16:51;;;;;;;8.68;2.13;;;7.70;99.90;;;;;;5124157;27;20207;-77
2021/04/24 01:19:20;;;;;;;7.28;2.58;;;7.70;99.90;;;;;;5109766;28;20268;-77
2021/04/24 01:21:49;;;;;;;5.15;3.03;;;7.60;99.90;;;;;;5109349;27;20219;-77
2021/04/24 01:24:16;;;;;;;5.90;2.70;;;7.60;99.90;;;;;;5107750;28;20216;-77
2021/04/24 01:26:42;;;;;;;2.83;2.58;;;7.60;99.90;;;;;;5108459;28;20656;-78
2021/04/24 01:29:09;;;;;;;3.45;2.42;;;7.60;99.90;;;;;;5108766;28;20204;-78
2021/04/24 01:31:37;;;;;;;3.97;2.28;;;7.60;99.90;;;;;;5114685;28;20206;-77
2021/04/24 01:34:07;;;;;;;2.83;2.47;;;7.60;99.90;;;;;;5113085;28;20192;-78
2021/04/24 01:36:33;;;;;;;7.88;2.38;;;7.60;99.90;;;;;;5116582;27;20196;-77
2021/04/24 01:39:00;;;;;;;7.15;2.75;;;7.50;99.90;;;;;;5120526;27;20191;-78
2021/04/24 01:41:27;;;;;;;6.00;2.25;;;7.40;99.90;;;;;;5123734;27;20191;-78
2021/04/24 01:43:55;;;;;;;2.78;1.80;;;7.30;99.90;;;;;;5125615;28;20656;-77
2021/04/24 01:46:23;;;;;;;4.32;2.25;;;7.40;99.90;;;;;;5120021;27;20201;-77
2021/04/24 01:48:49;;;;;;;7.07;2.42;;;7.30;99.90;;;;;;5115658;28;20210;-77
2021/04/24 01:51:16;;;;;;;4.47;2.17;;;7.30;99.90;;;;;;5130022;27;20199;-76
2021/04/24 01:53:42;;;;;;;6.63;1.95;;;7.30;99.90;;;;;;5115911;28;20196;-77
2021/04/24 01:56:10;;;;;;;5.68;2.20;;;7.30;99.90;;;;;;5126299;27;20198;-77
2021/04/24 01:58:38;;;;;;;5.22;2.50;;;7.40;99.90;;;;;;5131004;27;20229;-77
2021/04/24 02:01:08;;;;;;;7.80;2.45;;;7.40;99.90;;;;;;5112207;27;20203;-78
2021/04/24 02:03:35;;;;;;;7.53;2.83;;;7.40;99.90;;;;;;5119869;27;20227;-77
2021/04/24 02:06:01;;;;;;;4.05;2.35;;;7.40;99.90;;;;;;5117686;28;20238;-77
2021/04/24 02:08:36;;;;;;;6.05;2.75;;;7.40;99.90;;;;;;5124602;27;20366;-77
2021/04/24 02:11:04;;;;;;;3.45;2.25;;;7.40;99.90;;;;;;5117677;28;20199;-77
2021/04/24 02:13:32;;;;;;;3.65;2.20;;;7.30;99.90;;;;;;5112686;28;20196;-77
2021/04/24 02:16:00;;;;;;;4.88;2.50;;;7.20;99.90;;;;;;5117225;28;20199;-78
2021/04/24 02:18:28;;;;;;;6.35;2.78;;;7.20;99.90;;;;;;5118506;28;20195;-78
2021/04/24 02:20:54;;;;;;;10.52;3.00;;;7.20;99.90;;;;;;5113249;28;20200;-77
2021/04/24 02:23:22;;;;;;;5.43;2.42;;;7.20;99.90;;;;;;5118110;28;20210;-77
2021/04/24 02:25:49;;;;;;;4.20;2.03;;;7.20;99.90;;;;;;5121240;28;20230;-78
2021/04/24 02:28:16;;;;;;;4.40;2.17;;;7.10;99.90;;;;;;5111988;28;20196;-78
2021/04/24 02:30:43;;;;;;;6.28;2.08;;;7.00;99.90;;;;;;5118042;28;20212;-77
2021/04/24 02:33:11;;;;;;;4.75;2.10;;;6.90;99.90;;;;;;5116262;28;20272;-77
2021/04/24 02:35:45;;;;;;;2.47;2.28;;;6.90;99.90;;;;;;5116352;27;20415;-78
2021/04/24 02:38:13;;;;;;;2.95;1.85;;;6.80;99.90;;;;;;5119286;28;20203;-78
2021/04/24 02:40:39;;;;;;;5.47;2.25;;;6.80;99.90;;;;;;5124481;28;20570;-78
2021/04/24 02:43:06;;;;;;;4.22;2.80;;;6.60;99.90;;;;;;5120114;28;20207;-77
2021/04/24 02:45:32;;;;;;;7.43;2.72;;;6.50;99.90;;;;;;5118040;27;20223;-78
2021/04/24 02:47:58;;;;;;;7.55;2.92;;;6.50;99.90;;;;;;5127351;27;20198;-78
2021/04/24 02:50:27;;;;;;;5.13;2.55;;;6.50;99.90;;;;;;5128184;27;20210;-78
2021/04/24 02:52:54;;;;;;;6.07;2.83;;;6.40;99.90;;;;;;5113179;27;20211;-77
2021/04/24 02:55:21;;;;;;;6.40;2.60;;;6.40;99.90;;;;;;5122941;27;20196;-78
2021/04/24 02:57:48;;;;;;;2.72;2.42;;;6.30;99.90;;;;;;5131654;27;20199;-78
2021/04/24 03:00:17;;;;;;;8.27;2.58;;;6.30;99.90;;;;;;5122196;27;20562;-78
2021/04/24 03:02:43;;;;;;;7.72;2.67;;;6.20;99.90;;;;;;5122485;27;20199;-78
2021/04/24 03:05:12;;;;;;;6.13;2.58;;;6.20;99.90;;;;;;5117273;27;20220;-78
2021/04/24 03:07:40;;;;;;;7.10;2.85;;;6.10;99.90;;;;;;5117153;27;20203;-77
2021/04/24 03:10:08;;;;;;;5.70;2.90;;;6.10;99.90;;;;;;5124080;27;20207;-77
2021/04/24 03:12:35;;;;;;;4.28;2.70;;;6.10;99.90;;;;;;5116916;27;20200;-77
2021/04/24 03:15:02;;;;;;;3.38;2.70;;;6.00;99.90;;;;;;5118484;27;20208;-77
2021/04/24 03:17:28;;;;;;;8.65;3.47;;;6.00;99.90;;;;;;5126768;27;20199;-77
2021/04/24 03:19:54;;;;;;;4.05;2.28;;;6.00;99.90;;;;;;5115239;28;20204;-77
2021/04/24 03:22:21;;;;;;;5.90;2.80;;;6.00;99.90;;;;;;5129249;27;20202;-77
2021/04/24 03:24:48;;;;;;;2.88;2.53;;;5.90;99.90;;;;;;5123974;27;20234;-77
2021/04/24 03:27:15;;;;;;;4.05;2.72;;;6.00;99.90;;;;;;5116050;27;20230;-77
2021/04/24 03:29:41;;;;;;;6.18;2.97;;;5.90;99.90;;;;;;5117317;27;20199;-77
2021/04/24 03:32:07;;;;;;;6.57;2.80;;;5.90;99.90;;;;;;5125528;27;20657;-78
2021/04/24 03:34:34;;;;;;;4.68;2.58;;;5.90;99.90;;;;;;5116517;28;20899;-78
2021/04/24 03:37:01;;;;;;;4.05;2.85;;;5.90;99.90;;;;;;5117645;27;20199;-77
2021/04/24 03:39:27;;;;;;;2.67;2.40;;;5.90;99.90;;;;;;5116287;27;20207;-77
2021/04/24 03:41:54;;;;;;;6.30;2.65;;;5.80;99.90;;;;;;5133880;27;20202;-77
2021/04/24 03:44:21;;;;;;;4.63;3.58;;;5.80;99.90;;;;;;5120227;27;20223;-78
2021/04/24 03:46:55;;;;;;;3.95;2.60;;;5.80;99.90;;;;;;5132920;27;20207;-78
2021/04/24 03:52:06;;;;;;;4.85;2.50;;;5.70;99.90;;;;;;5123276;27;20210;-78
2021/04/24 03:54:33;;;;;;;4.30;2.70;;;5.70;99.90;;;;;;5125697;27;20229;-78
2021/04/24 03:57:01;;;;;;;9.52;3.25;;;5.60;99.90;;;;;;5132654;27;20218;-78
2021/04/24 03:59:27;;;;;;;6.15;3.80;;;5.70;99.90;;;;;;5122782;27;20840;-78
2021/04/24 04:01:53;;;;;;;7.70;4.15;;;5.70;99.90;;;;;;5115355;27;20581;-77
2021/04/24 04:04:20;;;;;;;6.78;4.05;;;5.70;99.90;;;;;;5110504;27;20684;-78
2021/04/24 04:06:46;;;;;;;5.85;3.00;;;5.70;99.90;;;;;;5116352;27;20195;-77
2021/04/24 04:09:13;;;;;;;5.28;3.33;;;5.70;99.90;;;;;;5134871;27;20195;-77
2021/04/24 04:11:39;;;;;;;7.30;3.17;;;5.70;99.90;;;;;;5112909;28;20708;-78
2021/04/24 04:14:07;;;;;;;6.22;3.28;;;5.80;99.90;;;;;;5110750;28;21150;-77
2021/04/24 04:16:33;;;;;;;3.92;3.25;;;5.70;99.90;;;;;;5114144;27;20211;-77
2021/04/24 04:18:59;;;;;;;5.93;3.45;;;5.80;99.90;;;;;;5123899;27;20204;-77
2021/04/24 04:21:26;;;;;;;9.02;3.58;;;5.80;99.90;;;;;;5113124;28;20196;-77
2021/04/24 04:23:52;;;;;;;8.40;3.70;;;5.80;99.90;;;;;;5112230;27;20459;-77
2021/04/24 04:26:19;;;;;;;7.20;3.95;;;5.90;99.90;;;;;;5116738;27;20489;-78
2021/04/24 04:28:46;;;;;;;11.73;3.80;;;5.90;99.90;;;;;;5118743;27;20202;-78
2021/04/24 04:31:13;;;;;;;7.15;3.60;;;5.90;99.90;;;;;;5119517;27;20206;-78
2021/04/24 04:33:39;;;;;;;4.30;3.45;;;5.90;99.90;;;;;;5111112;28;20210;-78
2021/04/24 04:36:06;;;;;;;7.55;4.15;;;5.90;99.90;;;;;;5110431;27;20204;-76
2021/04/24 04:38:33;;;;;;;5.63;3.78;;;5.90;99.90;;;;;;5118990;27;22895;-76
2021/04/24 04:41:00;;;;;;;8.43;3.55;;;5.90;99.90;;;;;;5114970;27;20195;-76
2021/04/24 04:43:26;;;;;;;7.28;3.88;;;5.90;99.90;;;;;;5115279;27;20202;-76
2021/04/24 04:45:53;;;;;;;8.43;4.70;;;6.00;99.90;;;;;;5121195;27;20219;-77
2021/04/24 04:48:20;;;;;;;7.75;4.38;;;6.00;99.90;;;;;;5119222;27;20200;-77
2021/04/24 04:50:47;;;;;;;6.20;3.67;;;6.10;99.90;;;;;;5117494;27;20203;-77
2021/04/24 04:53:14;;;;;;;9.52;4.38;;;6.20;99.90;;;;;;5117524;27;20207;-77
2021/04/24 04:55:40;;;;;;;10.10;4.03;;;6.20;99.90;;;;;;5113274;27;20212;-77
2021/04/24 04:58:07;;;;;;;7.75;4.18;;;6.20;99.90;;;;;;5115233;28;20200;-77
2021/04/24 05:00:34;;;;;;;5.43;3.88;;;6.30;99.90;;;;;;5125229;27;20210;-76
2021/04/24 05:03:00;;;;;;;10.63;3.90;;;6.40;99.90;;;;;;5110233;27;20235;-77
2021/04/24 05:05:28;;;;;;;11.40;4.05;;;6.50;99.90;;;;;;5108919;27;20254;-77
2021/04/24 05:07:54;;;;;;;7.97;3.50;;;6.50;99.90;;;;;;5109248;27;20561;-77
2021/04/24 05:10:22;;;;;;;7.43;3.78;;;6.60;99.90;;;;;;5114662;28;20203;-77
2021/04/24 05:12:49;;;;;;;7.15;4.25;;;6.60;99.90;;;;;;5108747;27;20207;-77
2021/04/24 05:15:16;;;;;;;8.25;4.82;;;6.70;99.90;;;;;;5113167;27;20613;-77
2021/04/24 05:17:43;;;;;;;9.30;5.18;;;6.70;99.90;;;;;;5118964;27;20225;-77
2021/04/24 05:20:11;;;;;;;11.60;5.65;;;6.70;99.90;;;;;;5117022;27;20195;-77
2021/04/24 05:22:38;;;;;;;8.82;4.10;;;6.80;99.90;;;;;;5122442;27;20210;-77
2021/04/24 05:25:06;;;;;;;11.82;5.20;;;6.80;99.90;;;;;;5115135;27;20220;-76
2021/04/24 05:27:32;;;;;;;7.65;5.35;;;6.90;99.90;;;;;;5113537;27;20196;-77
2021/04/24 05:29:59;;;;;;;9.27;4.45;;;6.90;99.90;;;;;;5123267;27;20206;-77
2021/04/24 05:32:26;;;;;;;11.10;5.30;;;7.00;99.90;;;;;;5122509;27;20203;-77
2021/04/24 05:34:52;;;;;;;9.30;4.63;;;7.10;99.90;;;;;;5115291;28;20207;-77
2021/04/24 05:37:19;;;;;;;12.55;6.10;;;7.20;99.90;;;;;;5120707;28;20199;-77
2021/04/24 05:39:46;;;;;;;8.77;4.82;;;7.20;99.90;;;;;;5122981;27;20600;-78
2021/04/24 05:42:13;;;;;;;11.90;4.10;;;7.30;99.90;;;;;;5131881;27;20208;-77
2021/04/24 05:44:40;;;;;;;11.90;4.82;;;7.20;99.90;;;;;;5127824;27;20576;-77
2021/04/24 05:47:07;;;;;;;11.38;6.05;;;7.20;99.90;;;;;;5114043;27;20221;-77
2021/04/24 05:49:33;;;;;;;7.35;4.55;;;7.30;99.90;;;;;;5113750;28;20591;-77
2021/04/24 05:52:00;;;;;;;9.63;5.15;;;7.30;99.90;;;;;;5115979;27;20204;-77
2021/04/24 05:54:26;;;;;;;8.48;5.22;;;7.50;99.90;;;;;;5109439;28;20204;-77
2021/04/24 05:56:54;;;;;;;10.05;5.53;;;7.60;99.90;;;;;;5123860;27;20210;-78
2021/04/24 05:59:20;;;;;;;6.88;4.72;;;7.80;99.90;;;;;;5133603;27;20217;-77
2021/04/24 06:01:47;;;;;;;12.65;4.80;;;7.90;99.90;;;;;;5116174;28;20209;-77
2021/04/24 06:04:14;;;;;;;8.35;4.82;;;8.00;99.90;;;;;;5123340;28;20231;-78
2021/04/24 06:06:40;;;;;;;11.82;5.45;;;8.20;99.90;;;;;;5114867;28;20233;-78
2021/04/24 06:09:07;;;;;;;11.10;5.25;;;8.30;99.90;;;;;;5119027;28;20649;-78
2021/04/24 06:11:34;;;;;;;21.77;5.68;;;8.50;99.90;;;;;;5121169;27;20192;-77
2021/04/24 06:14:02;;;;;;;11.57;6.10;;;8.50;99.90;;;;;;5122872;28;20206;-77
2021/04/24 06:16:28;;;;;;;10.50;5.50;;;8.50;99.90;;;;;;5127354;28;20195;-78
2021/04/24 06:18:56;;;;;;;12.60;5.82;;;8.50;99.90;;;;;;5131572;28;20218;-78
2021/04/24 06:21:23;;;;;;;12.07;5.30;;;8.50;99.90;;;;;;5121098;27;20211;-78
2021/04/24 06:23:49;;;;;;;14.98;5.28;;;8.60;99.90;;;;;;5133138;27;20199;-78
2021/04/24 06:26:16;;;;;;;9.82;5.75;;;8.50;99.90;;;;;;5127004;27;20222;-78
2021/04/24 06:28:42;;;;;;;13.93;5.82;;;8.60;99.90;;;;;;5126113;27;20204;-77
2021/04/24 06:31:10;;;;;;;13.70;5.57;;;8.70;99.90;;;;;;5125273;27;20203;-77
2021/04/24 06:33:36;;;;;;;10.57;5.07;;;8.70;99.90;;;;;;5129791;27;20199;-77
2021/04/24 06:36:04;;;;;;;10.25;4.80;;;8.80;99.90;;;;;;5123474;27;20238;-77
2021/04/24 06:38:30;;;;;;;10.85;5.28;;;8.90;99.90;;;;;;5118644;27;20191;-76
2021/04/24 06:40:56;;;;;;;9.75;5.22;;;9.00;99.90;;;;;;5120498;27;20191;-77
2021/04/24 06:43:23;;;;;;;13.55;5.45;;;9.10;99.90;;;;;;5118938;27;20200;-77
2021/04/24 06:45:49;;;;;;;12.20;5.35;;;9.20;99.90;;;;;;5111854;27;20219;-77
2021/04/24 06:48:17;;;;;;;9.30;5.47;;;9.30;99.90;;;;;;5123705;27;20458;-77
2021/04/24 06:50:43;;;;;;;11.77;5.72;;;9.40;99.90;;;;;;5126529;27;20199;-77
2021/04/24 06:53:10;;;;;;;14.15;5.18;;;9.60;99.90;;;;;;5113875;27;20211;-77
2021/04/24 06:55:36;;;;;;;8.15;5.25;;;9.80;99.90;;;;;;5121196;27;20223;-77
2021/04/24 06:58:03;;;;;;;11.13;5.20;;;10.00;99.90;;;;;;5127004;27;20203;-77
2021/04/24 07:00:30;;;;;;;16.92;5.00;;;10.30;99.90;;;;;;5129402;27;20199;-78
2021/04/24 07:02:56;;;;;;;8.27;5.15;;;10.40;99.90;;;;;;5111900;28;20235;-78
2021/04/24 07:05:24;;;;;;;9.43;4.53;;;10.30;99.90;;;;;;5132300;27;20223;-78
2021/04/24 07:07:50;;;;;;;6.93;4.05;;;10.50;99.90;;;;;;5112848;27;20204;-77
2021/04/24 07:10:17;;;;;;;8.32;4.00;;;10.90;99.90;;;;;;5123812;27;20195;-78
2021/04/24 07:12:46;;;;;;;11.85;4.80;;;11.20;99.90;;;;;;5119232;27;20199;-76
2021/04/24 07:15:13;;;;;;;14.45;5.63;;;11.50;99.90;;;;;;5125031;27;20210;-77
2021/04/24 07:17:40;;;;;;;9.43;4.63;;;11.70;99.90;;;;;;5129429;27;20214;-78
2021/04/24 07:20:09;;;;;;;16.98;6.18;;;11.90;99.90;;;;;;5128326;27;20203;-77
2021/04/24 07:22:36;;;;;;;10.02;4.63;;;11.90;99.90;;;;;;5114199;28;20209;-76
2021/04/24 07:25:03;;;;;;;8.88;4.05;;;11.80;99.90;;;;;;5122363;27;20222;-77
2021/04/24 07:27:30;;;;;;;7.43;4.90;;;11.80;99.90;;;;;;5118654;27;20205;-77
2021/04/24 07:29:56;;;;;;;11.55;4.55;;;11.90;99.90;;;;;;5110699;27;20332;-77
2021/04/24 07:32:23;;;;;;;9.18;4.57;;;12.10;99.90;;;;;;5110243;27;20200;-77
2021/04/24 07:34:49;;;;;;;8.10;4.00;;;11.90;99.90;;;;;;5110549;27;20200;-76
2021/04/24 07:37:15;;;;;;;8.40;4.10;;;12.00;99.90;;;;;;5110310;28;20448;-77
2021/04/24 07:39:43;;;;;;;13.57;4.55;;;12.30;99.90;;;;;;5108845;28;20457;-77
2021/04/24 07:42:10;;;;;;;7.18;3.83;;;12.60;99.90;;;;;;5123983;27;20197;-76
2021/04/24 07:44:38;;;;;;;5.47;3.45;;;12.60;99.90;;;;;;5124533;27;20204;-76
2021/04/24 07:47:05;;;;;;;6.53;3.22;;;12.60;99.90;;;;;;5121638;27;20208;-75
2021/04/24 07:49:32;;;;;;;5.93;3.60;;;12.40;99.90;;;;;;5133156;27;20205;-77
2021/04/24 07:51:58;;;;;;;3.45;2.80;;;12.40;99.90;;;;;;5125841;27;20211;-77
2021/04/24 07:54:24;;;;;;;11.35;3.22;;;12.70;99.90;;;;;;5113858;27;20210;-77
2021/04/24 07:56:52;;;;;;;7.70;4.18;;;13.00;99.60;;;;;;5118747;27;20229;-77
2021/04/24 07:59:18;;;;;;;6.75;4.65;;;13.40;99.90;;;;;;5124017;27;20226;-77
2021/04/24 08:01:45;;;;;;;7.57;4.32;;;13.80;99.00;;;;;;5130471;27;20208;-77
2021/04/24 08:04:11;;;;;;;7.88;4.32;;;14.20;99.00;;;;;;5118192;27;20230;-77
2021/04/24 08:06:37;;;;;;;9.60;4.57;;;14.60;96.80;;;;;;5123861;27;20226;-76
2021/04/24 08:09:05;;;;;;;5.57;3.25;;;14.70;95.90;;;;;;5109377;27;20200;-76
2021/04/24 08:11:31;;;;;;;4.75;3.08;;;14.60;94.50;;;;;;5115266;27;20202;-77
2021/04/24 08:13:59;;;;;;;8.43;3.60;;;14.50;95.00;;;;;;5119343;27;20221;-77
2021/04/24 08:16:25;;;;;;;10.45;3.92;;;14.60;94.70;;;;;;5127577;27;20195;-77
2021/04/24 08:18:52;;;;;;;5.30;3.72;;;14.80;94.60;;;;;;5133228;27;20203;-77
2021/04/24 08:21:19;;;;;;;6.53;3.75;;;15.10;94.10;;;;;;5115098;27;20221;-77
2021/04/24 08:23:45;;;;;;;8.77;3.65;;;15.30;94.50;;;;;;5120522;27;20671;-77
2021/04/24 08:26:12;;;;;;;5.55;3.80;;;15.50;94.20;;;;;;5115901;27;20237;-77
2021/04/24 08:28:39;;;;;;;6.03;3.15;;;15.50;93.10;;;;;;5122707;27;20220;-76
2021/04/24 08:31:06;;;;;;;3.35;2.92;;;15.50;92.10;;;;;;5121036;27;20196;-76
2021/04/24 08:33:33;;;;;;;4.68;2.88;;;15.50;90.20;;;;;;5116663;27;20206;-76
2021/04/24 08:35:59;;;;;;;6.07;3.85;;;15.70;91.20;;;;;;5120892;27;20206;-77
2021/04/24 08:38:25;;;;;;;5.70;3.55;;;15.80;91.20;;;;;;5116190;27;20202;-77
2021/04/24 08:40:52;;;;;;;10.27;3.05;;;16.10;91.10;;;;;;5115270;27;20209;-77
2021/04/24 08:43:19;;;;;;;4.32;3.28;;;16.40;90.40;;;;;;5119293;27;20206;-77
2021/04/24 08:45:48;;;;;;;5.07;3.00;;;16.50;88.00;;;;;;5116578;27;20271;-76
2021/04/24 08:48:20;;;;;;;6.72;3.42;;;16.50;87.70;;;;;;5121560;27;20285;-77
2021/04/24 08:50:46;;;;;;;3.30;3.00;;;16.60;88.30;;;;;;5122251;27;20209;-76
2021/04/24 08:53:17;;;;;;;5.35;3.08;;;16.70;87.40;;;;;;5127955;27;20267;-77
2021/04/24 08:55:43;;;;;;;7.25;3.38;;;16.60;85.90;;;;;;5123810;27;20214;-77
2021/04/24 08:58:10;;;;;;;5.50;3.00;;;16.50;86.70;;;;;;5119166;27;20207;-77
2021/04/24 09:00:39;;;;;;;3.72;3.05;;;16.60;83.90;;;;;;5123914;27;20209;-77
2021/04/24 09:03:08;;;;;;;5.03;3.28;;;16.70;84.20;;;;;;5115876;27;20238;-76
2021/04/24 09:05:36;;;;;;;4.13;2.53;;;16.60;83.10;;;;;;5118498;28;20229;-77
2021/04/24 09:08:05;;;;;;;4.35;2.85;;;16.90;83.90;;;;;;5117190;28;20198;-77
2021/04/24 09:10:40;;;;;;;3.28;2.88;;;17.20;81.70;;;;;;5116868;28;20202;-76
2021/04/24 09:13:07;;;;;;;3.50;2.80;;;17.30;80.80;;;;;;5116683;27;20217;-77
2021/04/24 09:15:34;;;;;;;5.95;2.90;;;17.50;81.10;;;;;;5121390;27;20448;-77
2021/04/24 09:18:03;;;;;;;4.82;2.88;;;17.50;78.70;;;;;;5115668;27;20225;-77
2021/04/24 09:20:32;;;;;;;3.08;2.63;;;17.40;79.50;;;;;;5110868;27;20233;-76
2021/04/24 09:23:08;;;;;;;7.25;3.03;;;17.40;79.70;;;;;;5113179;28;20531;-77
2021/04/24 09:25:37;;;;;;;4.38;3.10;;;17.50;78.60;;;;;;5126361;27;20231;-77
2021/04/24 09:28:05;;;;;;;2.95;2.50;;;17.70;78.70;;;;;;5121061;27;20203;-77
2021/04/24 09:30:33;;;;;;;10.52;3.08;;;17.80;77.40;;;;;;5109216;28;20195;-76
2021/04/24 09:33:09;;;;;;;3.83;2.70;;;17.80;77.90;;;;;;5122610;27;20217;-77
2021/04/24 09:35:47;;;;;;;3.72;2.78;;;18.00;77.60;;;;;;5124134;27;20198;-77
2021/04/24 09:38:24;;;;;;;7.55;3.08;;;18.00;78.10;;;;;;5138059;27;20197;-76
2021/04/24 09:41:13;;;;;;;3.05;2.80;;;18.10;76.60;;;;;;5111467;28;20206;-77
2021/04/24 09:44:02;;;;;;;5.20;3.28;;;17.90;75.70;;;;;;5126617;28;22823;-77
2021/04/24 09:46:31;;;;;;;4.43;3.15;;;17.70;76.10;;;;;;5121458;27;20233;-78
2021/04/24 09:49:20;;;;;;;7.45;3.50;;;17.60;76.70;;;;;;5122111;27;20209;-77
2021/04/24 09:51:50;;;;;;;4.95;3.05;;;17.50;74.40;;;;;;5121798;28;20207;-75
2021/04/24 09:54:18;;;;;;;3.95;3.05;;;17.20;76.00;;;;;;5116148;27;20229;-77
2021/04/24 09:56:56;;;;;;;6.28;3.08;;;17.00;76.30;;;;;;5114508;28;20211;-77
2021/04/24 09:59:22;;;;;;;6.05;3.92;;;17.10;76.20;;;;;;5112072;28;20221;-77
2021/04/24 10:11:30;;;;;;;14.05;4.32;;;17.50;76.60;;;;;;5082212;28;20234;-76
2021/04/24 10:13:56;;;;;;;8.88;3.70;;;17.80;75.90;;;;;;5085855;28;20210;-76
2021/04/24 10:16:36;;;;;;;4.32;3.17;;;18.00;76.90;;;;;;5086112;28;20602;-76
2021/04/24 10:19:04;;;;;;;3.78;2.95;;;18.00;73.70;;;;;;5089178;28;20207;-76
2021/04/24 10:21:32;;;;;;;7.18;3.38;;;17.90;74.20;;;;;;5089324;28;20208;-77
2021/04/24 10:23:59;;;;;;;8.02;3.88;;;17.80;74.30;;;;;;5085866;28;20223;-76
2021/04/24 10:26:26;;;;;;;3.17;2.60;;;17.80;74.20;;;;;;5081806;28;20288;-76
2021/04/24 10:28:54;;;;;;;10.15;2.90;;;18.00;74.50;;;;;;5088186;28;20208;-76
2021/04/24 10:31:21;;;;;;;7.45;2.65;;;18.30;74.30;;;;;;5088672;28;20200;-76
2021/04/24 10:33:48;;;;;;;2.72;2.30;;;18.80;74.30;;;;;;5087987;28;20211;-76
2021/04/24 10:36:16;;;;;;;6.97;3.20;;;19.30;71.80;;;;;;5091643;28;20207;-76
2021/04/24 10:38:44;;;;;;;8.00;2.92;;;19.60;71.50;;;;;;5090219;28;20216;-77
2021/04/24 10:41:13;;;;;;;5.10;3.05;;;19.90;70.90;;;;;;5081020;28;20204;-77
2021/04/24 10:43:39;;;;;;;6.72;3.40;;;20.20;69.90;;;;;;5087262;28;20256;-77
2021/04/24 10:46:30;;;;;;;4.97;3.33;;;20.40;68.40;;;;;;5081224;28;20200;-77
2021/04/24 10:49:17;;;;;;;5.53;3.40;;;20.40;67.90;;;;;;5082091;28;20204;-77
2021/04/24 10:51:55;;;;;;;5.40;3.03;;;20.70;69.40;;;;;;5086097;28;20227;-76
2021/04/24 10:54:22;;;;;;;5.32;2.45;;;21.10;67.70;;;;;;5081501;28;20257;-76
2021/04/24 10:56:49;;;;;;;3.97;2.63;;;21.30;67.20;;;;;;5080503;28;20219;-76
2021/04/24 10:59:20;;;;;;;6.60;2.58;;;21.30;64.00;;;;;;5082724;28;20200;-76
2021/04/24 11:02:12;;;;;;;3.10;2.40;;;20.80;63.20;;;;;;5089657;28;20201;-76
2021/04/24 11:04:40;;;;;;;2.55;2.35;;;20.40;64.40;;;;;;5091122;28;20240;-76
2021/04/24 11:07:24;;;;;;;3.67;2.70;;;19.80;63.50;;;;;;5086609;28;20281;-77
2021/04/24 11:10:26;;;;;;;2.53;2.20;;;19.20;63.50;;;;;;5081846;28;20199;-76
2021/04/24 11:12:53;;;;;;;5.28;3.15;;;18.60;64.60;;;;;;5084134;28;20196;-77
2021/04/24 11:15:21;;;;;;;7.07;3.20;;;18.10;65.60;;;;;;5075203;28;20220;-77
2021/04/24 11:17:50;;;;;;;4.05;2.70;;;17.70;67.10;;;;;;5069709;28;20570;-77
2021/04/24 11:20:51;;;;;;;6.32;2.83;;;17.60;68.90;;;;;;5080456;28;20198;-77
2021/04/24 11:23:44;;;;;;;4.60;2.58;;;17.40;66.30;;;;;;5074934;28;20220;-76
2021/04/24 11:26:14;;;;;;;6.70;2.67;;;17.10;66.10;;;;;;5077417;28;20210;-76
2021/04/24 11:29:06;;;;;;;5.22;2.88;;;16.90;66.60;;;;;;5076692;28;20206;-76
2021/04/24 11:31:58;;;;;;;3.05;2.70;;;16.60;67.50;;;;;;5069684;28;20205;-76
2021/04/24 11:34:49;;;;;;;5.00;3.05;;;16.40;66.90;;;;;;5067948;28;20209;-76
2021/04/24 11:37:34;;;;;;;5.45;2.80;;;16.30;67.90;;;;;;5074359;28;20206;-76
2021/04/24 11:40:24;;;;;;;2.90;2.67;;;16.30;69.10;;;;;;5070322;28;20260;-76
2021/04/24 11:43:07;;;;;;;3.10;2.50;;;16.30;65.60;;;;;;5072448;28;20219;-76
2021/04/24 11:45:51;;;;;;;3.58;2.55;;;16.20;66.40;;;;;;5068466;28;20208;-76
2021/04/24 11:48:38;;;;;;;5.13;2.95;;;16.20;67.00;;;;;;5067869;28;20228;-76
2021/04/24 11:51:06;;;;;;;3.83;2.80;;;16.20;66.60;;;;;;5071572;28;20212;-76
2021/04/24 11:53:44;;;;;;;5.68;2.90;;;16.20;66.90;;;;;;5069415;28;20208;-76
2021/04/24 11:56:13;;;;;;;6.03;3.08;;;16.20;68.80;;;;;;5068102;28;20212;-76
2021/04/24 11:58:43;;;;;;;4.35;2.88;;;16.20;70.00;;;;;;5067538;28;21517;-77
2021/04/24 12:01:18;;;;;;;6.15;3.17;;;16.30;70.60;;;;;;5071718;28;20200;-76
2021/04/24 12:03:45;;;;;;;11.38;3.58;;;16.30;69.40;;;;;;5069414;28;20250;-76
2021/04/24 12:06:12;;;;;;;4.70;3.08;;;16.40;69.50;;;;;;5075104;28;20231;-76
2021/04/24 12:08:39;;;;;;;7.47;4.32;;;16.40;69.90;;;;;;5070449;28;20199;-76
2021/04/24 12:11:10;;;;;;;4.35;2.90;;;16.30;70.00;;;;;;5075957;28;20200;-76
2021/04/24 12:13:36;;;;;;;6.63;3.80;;;16.40;70.90;;;;;;5069800;28;20207;-77
2021/04/24 12:16:03;;;;;;;6.38;3.58;;;16.40;69.70;;;;;;5069924;28;20202;-76
2021/04/24 12:18:30;;;;;;;9.82;3.42;;;16.40;68.40;;;;;;5072391;28;20204;-76
2021/04/24 12:20:58;;;;;;;7.55;3.78;;;16.40;70.50;;;;;;5065369;28;20291;-76
2021/04/24 12:23:26;;;;;;;6.85;3.40;;;16.30;70.10;;;;;;5065723;28;20232;-76
2021/04/24 12:25:52;;;;;;;7.15;4.25;;;16.10;71.10;;;;;;5067208;28;20622;-76
2021/04/24 12:28:20;;;;;;;14.27;3.42;;;16.10;72.30;;;;;;5069439;28;20211;-76
2021/04/24 12:30:48;;;;;;;8.63;3.78;;;16.20;71.00;;;;;;5073626;28;20272;-76
2021/04/24 12:33:15;;;;;;;7.53;3.38;;;16.30;70.50;;;;;;5074922;28;20215;-76
2021/04/24 12:35:46;;;;;;;12.30;4.47;;;16.20;69.70;;;;;;5070543;28;20205;-76
2021/04/24 12:38:15;;;;;;;5.20;2.90;;;16.20;70.20;;;;;;5072364;28;20292;-76
2021/04/24 12:40:44;;;;;;;5.53;3.35;;;16.30;71.40;;;;;;5076521;28;20201;-77
2021/04/24 12:43:13;;;;;;;6.57;4.00;;;16.50;70.70;;;;;;5067698;28;20221;-77
2021/04/24 12:45:42;;;;;;;7.05;3.83;;;16.60;70.20;;;;;;5068472;28;20211;-77
2021/04/24 12:48:15;;;;;;;4.78;3.47;;;16.80;70.80;;;;;;5075025;28;20214;-77
2021/04/24 12:50:43;;;;;;;7.47;4.05;;;17.00;71.10;;;;;;5072771;28;20191;-77
2021/04/24 12:53:12;;;;;;;9.35;3.95;;;17.10;71.60;;;;;;5066502;28;20201;-77
2021/04/24 12:55:40;;;;;;;3.80;3.30;;;17.30;71.30;;;;;;5076432;28;20648;-77
2021/04/24 12:58:09;;;;;;;6.57;4.05;;;17.40;71.20;;;;;;5071932;28;20298;-77
2021/04/24 13:00:39;;;;;;;7.65;3.63;;;17.50;71.50;;;;;;5072742;28;20195;-77
2021/04/24 13:03:28;;;;;;;8.70;3.97;;;17.50;69.50;;;;;;5072741;28;20237;-77
2021/04/24 13:05:57;;;;;;;5.75;3.28;;;17.50;71.00;;;;;;5074665;28;20204;-77
2021/04/24 13:08:24;;;;;;;7.88;3.90;;;17.50;69.10;;;;;;5070748;28;20216;-77
2021/04/24 13:11:06;;;;;;;6.32;4.15;;;17.40;69.20;;;;;;5071153;28;20212;-77